Pilot Station, Alaska
Current Conditions -  °F | °C
As of 12:36 PM on Thursday 18 Dec 2014 (Local Time) from PASM Reporting Station
Overcast Overcast  
Wind Chill: -15°   Ceiling: 7000
Heat Index: -7°   Visibility: 10mi
Dew Point: -9°   Wind: 16mph
Humidity: 86%   Direction: 90°E
Pressure: 29.41"   Gusts: 20mph
Location:  61.94°N, 162.88°W
Report Text: PASM 182136Z AUTO 09014G17KT 10SM OVC070 M07/M09 A2941 RMK AO1
Loading
Personal Weather Stations






























Interactive Weather Map New forecast layout! Learn more

10-Day Weather Forecast

Advertisements
Track Severe Weather on mobile